Metar z pełnej godziny Komunikat METAR ze strony awiacja.imgw.pl Metar G00 EPKK METAR EPKK 261900Z 24010KT 9999 BKN050 M01/M04 Q1011 R25/51//95 =